• Join FlightAware (Why Join?)
  • Login
  • US Flag 
04:25PM EDT


 

Airport Tracker/Info


-or-


 

Live Flight TrackerFlight Track Log ✈ N400PU ✈ 01-Dec-2013 ✈ KLAF - KJAX

Flight Track Log - Related Links

Times and Time Zones

All times are in EST time to prevent confusion due to time zone crossing. See the N400PU flight status page for this flight to view local times or setup timezone preferences in your user account.

Time Position Orientation Groundspeed Altitude Reporting Facility
EST Latitude Longitude Course Direction KTS MPH feet Rate Location/Type
10:12AM 40.4114 -86.9744 193° South 176 203 1,900  Level Chicago Center
10:12AM 40.3819 -86.9833 193° South 200 230 3,400 2,400 Climbing Chicago Center
10:13AM 40.3400 -86.9564 154° Southeast 269 310 5,200 2,520 Climbing Chicago Center
10:14AM 40.2683 -86.9094 153° Southeast 283 326 8,000 2,700 Climbing Chicago Center
10:15AM 40.1919 -86.8617 154° Southeast 300 345 10,800 2,520 Climbing Chicago Center
10:16AM 40.1114 -86.8111 154° Southeast 317 365 13,300 2,820 Climbing Chicago Center
10:16AM 40.0781 -86.7903 154° Southeast 323 372 14,300 2,820 Climbing Chicago Center
10:17AM 39.9936 -86.7375 154° Southeast 334 384 16,800 2,220 Climbing Chicago Center
10:18AM 39.9086 -86.6842 154° Southeast 340 391 18,900 1,740 Climbing Chicago Center
10:19AM 39.8208 -86.6306 155° Southeast 347 399 20,500 1,500 Climbing Chicago Center
10:20AM 39.7275 -86.5719 154° Southeast 370 426 22,000 1,440 Climbing Chicago Center
10:22AM 39.6108 -86.4981 154° Southeast 389 448 23,800 1,560 Climbing Indianapolis Center
10:23AM 39.4858 -86.4461 162° South 397 457 25,500 1,500 Climbing Indianapolis Center
10:24AM 39.3806 -86.4017 162° South 402 463 27,000 1,380 Climbing Indianapolis Center
10:25AM 39.2731 -86.3575 162° South 406 467 28,400 1,200 Climbing Indianapolis Center
10:26AM 39.1686 -86.2972 156° South 413 475 29,600 1,080 Climbing Indianapolis Center
10:27AM 39.0650 -86.2256 152° Southeast 424 488 30,700 1,080 Climbing Indianapolis Center
10:28AM 38.9381 -86.1386 152° Southeast 431 496 31,900 960 Climbing Indianapolis Center
10:29AM 38.8342 -86.0678 152° Southeast 436 502 32,800 780 Climbing Indianapolis Center
10:30AM 38.7261 -85.9953 152° Southeast 435 501 33,600 720 Climbing Indianapolis Center
10:31AM 38.6161 -85.9200 152° Southeast 442 509 34,300 540 Climbing Indianapolis Center
10:32AM 38.5044 -85.8447 152° Southeast 446 513 34,800 480 Climbing Indianapolis Center
10:33AM 38.3586 -85.8072 169° South 440 506 35,400 480 Climbing Indianapolis Center
10:34AM 38.2372 -85.7825 171° South 438 504 35,900 480 Climbing Indianapolis Center
10:35AM 38.1136 -85.7592 172° South 443 510 36,500 480 Climbing Indianapolis Center
10:36AM 37.9925 -85.7319 170° South 439 505 37,000 480 Climbing Indianapolis Center
10:37AM 37.8764 -85.6675 156° South 451 519 37,500 480 Climbing Indianapolis Center
10:38AM 37.7583 -85.6061 158° South 452 520 38,100 480 Climbing Indianapolis Center
10:39AM 37.6428 -85.5431 157° South 452 520 38,600 420 Climbing Indianapolis Center
10:40AM 37.5244 -85.4789 157° South 440 506 39,000 180 Climbing Indianapolis Center
10:41AM 37.3892 -85.4056 157° South 452 520 39,000  Level Indianapolis Center
10:42AM 37.2722 -85.3433 157° South 457 526 39,000  Level Indianapolis Center
10:43AM 37.1508 -85.2797 157° South 467 537 39,000  Level Indianapolis Center
10:44AM 37.0297 -85.2139 157° South 469 540 39,000  Level Indianapolis Center
10:45AM 36.9072 -85.1500 157° South 475 547 39,000  Level Indianapolis Center
10:46AM 36.7842 -85.0850 157° South 477 549 39,000  Level Indianapolis Center
10:47AM 36.6361 -85.0078 157° South 480 552 39,000  Level Indianapolis Center
10:48AM 36.5119 -84.9428 157° South 483 556 39,000  Level Indianapolis Center
10:49AM 36.3878 -84.8783 157° South 481 554 39,000  Level Indianapolis Center
10:51AM 36.2628 -84.8136 157° South 483 556 39,000  Level Indianapolis Center
10:52AM 36.1383 -84.7483 157° South 483 556 39,000  Level Indianapolis Center
10:52AM 36.0564 -84.7092 159° South 482 555 39,000  Level Atlanta Center
10:53AM 35.9317 -84.6439 157° South 482 555 39,000  Level Atlanta Center
10:54AM 35.8067 -84.5789 157° South 482 555 39,000  Level Atlanta Center
10:55AM 35.6819 -84.5169 158° South 487 560 39,000 -180 Level Atlanta Center
10:56AM 35.5569 -84.4522 157° South 487 560 38,700 -540 Descending Atlanta Center
10:57AM 35.4300 -84.3881 158° South 493 567 38,000 -360 Descending Atlanta Center
10:58AM 35.3006 -84.3239 158° South 493 567 38,000  Level Atlanta Center
10:59AM 35.1736 -84.2597 158° South 493 567 38,000  Level Atlanta Center
11:00AM 35.0442 -84.1961 158° South 493 567 38,000  Level Atlanta Center
11:01AM 34.9128 -84.1300 158° South 498 573 38,000  Level Atlanta Center
11:02AM 34.7731 -84.0589 157° South 498 573 38,000  Level Atlanta Center
11:03AM 34.6458 -83.9908 156° South 498 573 38,000  Level Atlanta Center
11:04AM 34.5164 -83.9278 158° South 498 573 38,000 -300 Level Atlanta Center
11:05AM 34.3994 -83.8675 157° South 504 580 37,500 -540 Descending Atlanta Center
11:06AM 34.2636 -83.8050 159° South 511 588 37,000 -300 Descending Atlanta Center
11:07AM 34.1300 -83.7375 157° South 518 596 37,000  Level Atlanta Center
11:08AM 33.9942 -83.6706 158° South 524 603 37,000  Level Atlanta Center
11:09AM 33.8414 -83.5986 159° South 531 611 37,000  Level Atlanta Center
11:10AM 33.7075 -83.5344 158° South 531 611 37,000  Level Atlanta Center
11:11AM 33.5717 -83.4678 158° South 531 611 37,000  Level Atlanta Center
11:12AM 33.4356 -83.4042 159° South 531 611 37,000 -540 Level Atlanta Center
11:13AM 33.2997 -83.3406 159° South 531 611 36,000 -540 Descending Atlanta Center
11:14AM 33.1656 -83.2719 157° South 531 611 36,000 -540 Level Atlanta Center
11:15AM 33.0275 -83.2064 158° South 531 611 35,000 -540 Descending Atlanta Center
11:16AM 32.8914 -83.1458 160° South 531 611 35,000 -480 Level Atlanta Center
11:17AM 32.7783 -83.0900 157° South 523 602 34,100 -1,020 Descending Atlanta Center
11:18AM 32.6483 -83.0275 158° South 507 583 33,000 -1,380 Descending Atlanta Center
11:19AM 32.5142 -82.9672 159° South 507 583 31,400 -1,740 Descending Atlanta Center
11:21AM 32.2397 -82.8336 158° South 489 563 27,400 -1,800 Descending Jacksonville Center
11:22AM 32.1164 -82.7772 159° South 478 550 25,600 -1,740 Descending Jacksonville Center
11:23AM 31.9953 -82.7211 159° South 473 544 24,000 -840 Descending Jacksonville Center
11:24AM 31.8656 -82.6625 159° South 468 539 24,000  Level Jacksonville Center
11:25AM 31.7444 -82.6044 158° South 463 533 24,000 -60 Level Jacksonville Center
11:26AM 31.6233 -82.5486 159° South 463 533 23,900 -1,140 Descending Jacksonville Center
11:27AM 31.5061 -82.4953 159° South 463 533 21,800 -2,100 Descending Jacksonville Center
11:28AM 31.3911 -82.4375 157° South 455 524 19,700 -2,040 Descending Jacksonville Center
11:29AM 31.2822 -82.3844 157° South 449 517 17,800 -2,040 Descending Jacksonville Center
11:30AM 31.1756 -82.3342 158° South 428 493 15,700 -2,100 Descending Jacksonville Center
11:31AM 31.1525 -82.3197 152° Southeast 402 463 15,200 -1,920 Descending Jacksonville Center
11:31AM 31.0856 -82.2886 158° South 386 444 13,900 -1,920 Descending Jacksonville Center
11:31AM 31.0772 -82.2814 143° Southeast 406 467 13,800 -1,920 Descending Jacksonville Center
11:32AM 30.9808 -82.2286 155° Southeast 377 434 12,000 -1,740 Descending Jacksonville Center
11:32AM 30.9831 -82.2311 316° Northwest 392 451 12,100 -120 Climbing Jacksonville Center
11:33AM 30.9033 -82.1444 137° Southeast 387 445 11,900 -720 Descending Jacksonville Center
11:34AM 30.8278 -82.0844 146° Southeast 365 420 10,700 -1,680 Descending Jacksonville Center
11:35AM 30.7606 -82.0319 146° Southeast 326 375 8,600 -2,160 Descending Jacksonville Center
11:35AM 30.7606 -82.0319 146° Southeast 277 319 8,500 -2,220 Descending Jacksonville Center
11:36AM 30.6956 -81.9842 148° Southeast 294 338 6,400 -2,280 Descending Jacksonville Center
11:37AM 30.6850 -81.9769 150° Southeast 276 318 6,000 -2,040 Descending Jacksonville Center
11:37AM 30.6325 -81.9342 145° Southeast 279 321 4,400 -1,980 Descending Jacksonville Center
11:38AM 30.6242 -81.9294 154° Southeast 262 302 4,000 -1,500 Descending Jacksonville Center
11:38AM 30.5717 -81.8889 146° Southeast 274 315 2,900 -1,320 Descending Jacksonville Center
11:39AM 30.5653 -81.8817 136° Southeast 260 299 2,700 -900 Descending Jacksonville Center
11:39AM 30.5147 -81.8436 147° Southeast 264 304 2,000 -840 Descending Jacksonville Center
11:40AM 30.5044 -81.8367 150° Southeast 255 293 1,900  Descending Jacksonville Center
11:40AM 30.4750 -81.8103 142° Southeast 249 287 2,000 -240 Climbing Jacksonville Center
11:41AM 30.4683 -81.7864 108° East 186 214 1,700 -1,020 Descending Jacksonville Center
11:42AM 30.4806 -81.7428 72° East 121 139 800 -840 Descending Jacksonville Center
11:43AM 30.4928 -81.7114 66° East 115 132 100 -720 Descending Jacksonville Center
11:45AM 30.4941 -81.6878 120° Southeast  Level Estimated